createdAt,value
2019-03-18T00:00:32.339Z,6.07
2019-03-18T00:01:08.067Z,3.83
2019-03-18T00:01:43.842Z,4.27
2019-03-18T00:02:19.365Z,5.70
2019-03-18T00:02:54.874Z,5.47
2019-03-18T00:03:30.681Z,6.33
2019-03-18T00:04:06.159Z,5.53
2019-03-18T00:04:41.613Z,5.40
2019-03-18T00:05:17.387Z,6.57
2019-03-18T00:05:53.196Z,5.87
2019-03-18T00:06:28.617Z,4.00
2019-03-18T00:07:04.486Z,6.73
2019-03-18T00:07:40.326Z,5.00
2019-03-18T00:08:16.046Z,6.23
2019-03-18T00:08:52.407Z,6.50
2019-03-18T00:09:27.839Z,4.60
2019-03-18T00:10:03.583Z,6.17
2019-03-18T00:10:39.011Z,4.67
2019-03-18T00:11:14.777Z,5.07
2019-03-18T00:11:50.608Z,6.10
2019-03-18T00:12:26.063Z,5.87
2019-03-18T00:13:01.475Z,5.67
2019-03-18T00:13:37.194Z,6.13
2019-03-18T00:14:12.727Z,5.93
2019-03-18T00:15:00.404Z,8.20
2019-03-18T00:15:25.657Z,5.83
2019-03-18T00:16:01.087Z,5.60
2019-03-18T00:16:36.522Z,4.50
2019-03-18T00:17:11.969Z,5.23
2019-03-18T00:17:47.813Z,7.23
2019-03-18T00:18:23.694Z,5.43
2019-03-18T00:18:59.130Z,4.70
2019-03-18T00:19:34.936Z,5.53
2019-03-18T00:20:10.663Z,6.43
2019-03-18T00:20:46.432Z,4.10
2019-03-18T00:21:22.654Z,4.80
2019-03-18T00:21:58.484Z,5.47
2019-03-18T00:22:34.376Z,6.83
2019-03-18T00:23:09.806Z,3.73
2019-03-18T00:23:45.267Z,5.67
2019-03-18T00:24:20.854Z,4.70
2019-03-18T00:24:56.643Z,5.93
2019-03-18T00:25:32.098Z,4.80
2019-03-18T00:26:07.865Z,6.87
2019-03-18T00:26:43.613Z,8.53
2019-03-18T00:27:19.167Z,4.90
2019-03-18T00:27:54.720Z,5.77
2019-03-18T00:28:30.165Z,7.43
2019-03-18T00:29:06.265Z,4.43
2019-03-18T00:29:41.921Z,4.00
2019-03-18T00:30:17.701Z,4.50
2019-03-18T00:30:53.712Z,4.30
2019-03-18T00:31:29.165Z,5.27
2019-03-18T00:32:04.863Z,7.13
2019-03-18T00:32:40.266Z,6.27
2019-03-18T00:33:15.927Z,4.73
2019-03-18T00:33:51.461Z,5.00
2019-03-18T00:34:27.391Z,7.23
2019-03-18T00:35:02.822Z,6.50
2019-03-18T00:35:38.588Z,6.53
2019-03-18T00:36:14.020Z,5.40
2019-03-18T00:36:49.622Z,6.40
2019-03-18T00:37:25.510Z,4.57
2019-03-18T00:38:01.392Z,5.87
2019-03-18T00:38:36.829Z,7.13
2019-03-18T00:39:12.730Z,6.30
2019-03-18T00:39:48.579Z,7.10
2019-03-18T00:40:24.015Z,5.30
2019-03-18T00:40:59.769Z,5.47
2019-03-18T00:41:35.445Z,3.53
2019-03-18T00:42:11.145Z,4.90
2019-03-18T00:42:46.931Z,4.47
2019-03-18T00:43:22.464Z,6.27
2019-03-18T00:43:58.244Z,5.60
2019-03-18T00:44:33.696Z,4.13
2019-03-18T00:45:14.697Z,6.63
2019-03-18T00:45:46.766Z,7.13
2019-03-18T00:46:22.562Z,3.73
2019-03-18T00:46:58.286Z,5.17
2019-03-18T00:47:34.074Z,4.83
2019-03-18T00:48:09.502Z,4.40
2019-03-18T00:48:45.621Z,5.43
2019-03-18T00:49:21.539Z,4.47
2019-03-18T00:49:56.994Z,4.37
2019-03-18T00:50:32.436Z,4.87
2019-03-18T00:51:07.863Z,5.43
2019-03-18T00:51:43.860Z,4.77
2019-03-18T00:52:19.543Z,6.93
2019-03-18T00:52:55.459Z,3.70
2019-03-18T00:53:30.940Z,3.97
2019-03-18T00:54:06.428Z,5.07
2019-03-18T00:54:42.366Z,2.63
2019-03-18T00:55:17.825Z,5.63
2019-03-18T00:55:53.374Z,6.27
2019-03-18T00:56:28.848Z,6.67
2019-03-18T00:57:04.338Z,6.13
2019-03-18T00:57:39.755Z,4.63
2019-03-18T00:58:15.616Z,5.83
2019-03-18T00:58:52.137Z,4.63
2019-03-18T00:59:28.626Z,4.60
2019-03-18T01:00:04.470Z,8.07
2019-03-18T01:00:40.528Z,4.03
2019-03-18T01:01:15.963Z,4.83
2019-03-18T01:01:51.690Z,6.53
2019-03-18T01:02:27.447Z,4.57
2019-03-18T01:03:02.878Z,5.77
2019-03-18T01:03:38.414Z,4.77
2019-03-18T01:04:13.906Z,6.17
2019-03-18T01:04:49.979Z,6.33
2019-03-18T01:05:26.147Z,5.43
2019-03-18T01:06:01.894Z,8.00
2019-03-18T01:06:38.457Z,3.43
2019-03-18T01:07:13.883Z,6.37
2019-03-18T01:07:49.477Z,4.10
2019-03-18T01:08:25.375Z,3.57
2019-03-18T01:09:00.886Z,5.87
2019-03-18T01:09:37.056Z,2.47
2019-03-18T01:10:12.909Z,4.27
2019-03-18T01:10:48.382Z,4.50
2019-03-18T01:11:23.831Z,3.93
2019-03-18T01:11:59.606Z,4.17
2019-03-18T01:12:35.347Z,6.33
2019-03-18T01:13:10.756Z,3.53
2019-03-18T01:13:46.558Z,7.87
2019-03-18T01:14:22.451Z,4.63
2019-03-18T01:14:58.516Z,5.97
2019-03-18T01:15:33.960Z,4.80
2019-03-18T01:16:09.706Z,4.60
2019-03-18T01:16:45.649Z,5.50
2019-03-18T01:17:21.105Z,6.17
2019-03-18T01:17:57.551Z,4.83
2019-03-18T01:18:33.267Z,8.30
2019-03-18T01:19:09.004Z,5.97
2019-03-18T01:19:44.767Z,5.00
2019-03-18T01:20:20.203Z,4.70
2019-03-18T01:20:55.624Z,3.50
2019-03-18T01:21:31.137Z,3.80
2019-03-18T01:22:06.896Z,5.77
2019-03-18T01:22:42.633Z,3.37
2019-03-18T01:23:18.077Z,7.17
2019-03-18T01:23:53.609Z,6.93
2019-03-18T01:24:29.258Z,8.47
2019-03-18T01:25:05.001Z,4.07
2019-03-18T01:25:40.483Z,6.33
2019-03-18T01:26:16.298Z,3.10
2019-03-18T01:26:51.888Z,4.47
2019-03-18T01:27:27.317Z,3.80
2019-03-18T01:28:03.094Z,5.53
2019-03-18T01:28:38.965Z,4.70
2019-03-18T01:29:14.383Z,4.77
2019-03-18T01:29:49.926Z,5.20
2019-03-18T01:30:25.737Z,4.23
2019-03-18T01:31:01.154Z,5.37
2019-03-18T01:31:37.218Z,4.07
2019-03-18T01:32:13.023Z,4.20
2019-03-18T01:32:48.490Z,6.53
2019-03-18T01:33:23.939Z,3.93
2019-03-18T01:34:00.290Z,7.17
2019-03-18T01:34:36.057Z,5.63
2019-03-18T01:35:11.682Z,4.67
2019-03-18T01:35:47.103Z,6.00
2019-03-18T01:36:22.557Z,4.80
2019-03-18T01:36:57.979Z,4.80
2019-03-18T01:37:33.423Z,4.47
2019-03-18T01:38:08.820Z,5.87
2019-03-18T01:38:44.259Z,7.83
2019-03-18T01:39:20.423Z,8.70
2019-03-18T01:39:55.986Z,4.37
2019-03-18T01:40:31.449Z,4.20
2019-03-18T01:41:06.873Z,5.03
2019-03-18T01:41:42.287Z,4.00
2019-03-18T01:42:17.996Z,9.90
2019-03-18T01:42:53.681Z,4.10
2019-03-18T01:43:29.851Z,4.23
2019-03-18T01:44:05.365Z,5.97
2019-03-18T01:44:40.792Z,3.97
2019-03-18T01:45:16.612Z,5.23
2019-03-18T01:45:52.631Z,5.40
2019-03-18T01:46:28.076Z,4.10
2019-03-18T01:47:03.816Z,5.37
2019-03-18T01:47:39.240Z,6.20
2019-03-18T01:48:14.764Z,7.57
2019-03-18T01:48:50.430Z,4.90
2019-03-18T01:49:26.002Z,6.17
2019-03-18T01:50:01.460Z,5.43
2019-03-18T01:50:36.883Z,6.77
2019-03-18T01:51:12.317Z,4.73
2019-03-18T01:51:47.854Z,4.93
2019-03-18T01:52:23.319Z,5.37
2019-03-18T01:52:58.733Z,3.90
2019-03-18T01:53:34.514Z,8.60
2019-03-18T01:54:10.388Z,4.40
2019-03-18T01:54:46.108Z,4.13
2019-03-18T01:55:21.941Z,4.63
2019-03-18T01:55:57.371Z,4.90
2019-03-18T01:56:33.659Z,5.67
2019-03-18T01:57:09.095Z,4.87
2019-03-18T01:57:44.603Z,7.50
2019-03-18T01:58:20.125Z,7.50
2019-03-18T01:58:55.973Z,10.93
2019-03-18T01:59:31.403Z,8.03
2019-03-18T02:00:07.538Z,9.73
2019-03-18T02:00:43.293Z,6.87
2019-03-18T02:01:19.132Z,5.30
2019-03-18T02:01:54.663Z,7.30
2019-03-18T02:02:30.148Z,6.90
2019-03-18T02:03:05.557Z,4.93
2019-03-18T02:03:41.327Z,7.60
2019-03-18T02:04:17.254Z,5.07
2019-03-18T02:04:53.676Z,9.87
2019-03-18T02:05:29.440Z,5.23
2019-03-18T02:06:04.881Z,8.10
2019-03-18T02:06:40.300Z,5.60
2019-03-18T02:07:15.800Z,6.33
2019-03-18T02:07:51.277Z,8.97
2019-03-18T02:08:27.171Z,5.63
2019-03-18T02:09:02.771Z,7.30
2019-03-18T02:09:38.231Z,7.23
2019-03-18T02:10:13.723Z,9.97
2019-03-18T02:10:49.618Z,6.10
2019-03-18T02:11:25.405Z,5.67
2019-03-18T02:12:01.563Z,7.13
2019-03-18T02:12:37.076Z,7.97
2019-03-18T02:13:12.493Z,8.03
2019-03-18T02:13:48.376Z,6.17
2019-03-18T02:14:23.932Z,7.97
2019-03-18T02:14:59.824Z,7.23
2019-03-18T02:15:35.229Z,6.27
2019-03-18T02:16:10.663Z,6.70
2019-03-18T02:16:46.431Z,7.23
2019-03-18T02:17:21.943Z,11.67
2019-03-18T02:17:57.926Z,8.73
2019-03-18T02:18:33.685Z,9.03
2019-03-18T02:19:09.102Z,7.17
2019-03-18T02:19:44.545Z,7.43
2019-03-18T02:20:20.282Z,7.63
2019-03-18T02:20:56.323Z,7.83
2019-03-18T02:21:31.749Z,7.97
2019-03-18T02:22:07.153Z,7.97
2019-03-18T02:22:42.566Z,7.07
2019-03-18T02:23:18.026Z,8.30
2019-03-18T02:23:53.816Z,6.60
2019-03-18T02:24:29.289Z,9.43
2019-03-18T02:25:05.706Z,6.27
2019-03-18T02:25:41.224Z,7.47
2019-03-18T02:26:17.103Z,8.37
2019-03-18T02:26:53.352Z,9.37
2019-03-18T02:27:28.755Z,6.50
2019-03-18T02:28:04.170Z,8.63
2019-03-18T02:28:39.615Z,7.03
2019-03-18T02:29:15.314Z,6.20
2019-03-18T02:29:51.199Z,7.07
2019-03-18T02:30:26.661Z,9.77
2019-03-18T02:31:02.081Z,9.23
2019-03-18T02:31:37.487Z,8.00
2019-03-18T02:32:13.275Z,9.53
2019-03-18T02:32:48.764Z,8.03
2019-03-18T02:33:24.585Z,8.73
2019-03-18T02:34:00.091Z,9.17
2019-03-18T02:34:35.886Z,6.73
2019-03-18T02:35:11.608Z,8.07
2019-03-18T02:35:47.078Z,6.93
2019-03-18T02:36:22.536Z,7.10
2019-03-18T02:36:57.995Z,12.07
2019-03-18T02:37:33.708Z,8.10
2019-03-18T02:38:09.141Z,7.40
2019-03-18T02:38:44.695Z,7.47
2019-03-18T02:39:20.493Z,6.77
2019-03-18T02:39:56.266Z,11.33
2019-03-18T02:40:31.732Z,8.07
2019-03-18T02:41:07.337Z,8.03
2019-03-18T02:41:42.880Z,9.13
2019-03-18T02:42:18.336Z,9.93
2019-03-18T02:42:53.775Z,6.60
2019-03-18T02:43:29.280Z,8.43
2019-03-18T02:44:04.719Z,8.87
2019-03-18T02:44:40.488Z,8.00
2019-03-18T02:45:16.262Z,7.53
2019-03-18T02:46:08.928Z,10.17
2019-03-18T02:46:29.654Z,8.17
2019-03-18T02:47:05.067Z,8.93
2019-03-18T02:47:40.893Z,9.43
2019-03-18T02:48:16.334Z,6.97
2019-03-18T02:48:52.108Z,7.87
2019-03-18T02:49:27.529Z,7.40
2019-03-18T02:50:02.954Z,7.17
2019-03-18T02:50:38.527Z,8.93
2019-03-18T02:51:14.308Z,11.23
2019-03-18T02:51:52.789Z,6.33
2019-03-18T02:52:27.280Z,8.30
2019-03-18T02:53:02.673Z,9.37
2019-03-18T02:53:38.100Z,6.77
2019-03-18T02:54:13.848Z,8.40
2019-03-18T02:54:49.762Z,8.33
2019-03-18T02:55:25.225Z,7.10
2019-03-18T02:56:01.139Z,7.90
2019-03-18T02:56:36.951Z,10.33
2019-03-18T02:57:13.211Z,9.53
2019-03-18T02:57:49.032Z,7.67
2019-03-18T02:58:24.493Z,9.83
2019-03-18T02:58:59.920Z,7.97
2019-03-18T02:59:35.736Z,8.60
2019-03-18T03:00:11.956Z,10.77
2019-03-18T03:00:47.414Z,6.77
2019-03-18T03:01:23.014Z,6.77
2019-03-18T03:01:58.569Z,10.63
2019-03-18T03:02:34.014Z,7.43
2019-03-18T03:03:09.742Z,8.53
2019-03-18T03:03:45.151Z,6.67
2019-03-18T03:04:21.023Z,8.73
2019-03-18T03:04:56.909Z,8.13
2019-03-18T03:05:32.354Z,6.60
2019-03-18T03:06:08.157Z,7.63
2019-03-18T03:06:43.615Z,10.07
2019-03-18T03:07:19.463Z,6.67
2019-03-18T03:07:55.174Z,7.77
2019-03-18T03:08:30.595Z,8.10
2019-03-18T03:09:08.575Z,9.43
2019-03-18T03:09:44.351Z,6.17
2019-03-18T03:10:19.820Z,7.30
2019-03-18T03:10:55.313Z,10.40
2019-03-18T03:11:34.144Z,7.90
2019-03-18T03:12:08.444Z,7.53
2019-03-18T03:12:43.887Z,8.37
2019-03-18T03:13:19.418Z,8.30
2019-03-18T03:13:54.907Z,10.20
2019-03-18T03:14:30.334Z,6.17
2019-03-18T03:15:05.878Z,8.07
2019-03-18T03:15:41.323Z,9.53
2019-03-18T03:16:26.342Z,8.90
2019-03-18T03:16:54.080Z,8.73
2019-03-18T03:17:29.502Z,9.27
2019-03-18T03:18:04.923Z,8.87
2019-03-18T03:18:40.650Z,6.80
2019-03-18T03:19:16.437Z,7.93
2019-03-18T03:19:52.053Z,9.00
2019-03-18T03:20:27.484Z,7.33
2019-03-18T03:21:02.990Z,8.33
2019-03-18T03:21:39.047Z,6.90
2019-03-18T03:22:15.200Z,7.57
2019-03-18T03:22:51.167Z,6.57
2019-03-18T03:23:27.316Z,9.50
2019-03-18T03:24:03.074Z,6.80
2019-03-18T03:24:39.118Z,7.77
2019-03-18T03:25:14.842Z,7.43
2019-03-18T03:25:51.489Z,8.37
2019-03-18T03:26:27.254Z,7.23
2019-03-18T03:27:02.755Z,7.37
2019-03-18T03:27:38.233Z,8.43
2019-03-18T03:28:14.080Z,8.50
2019-03-18T03:28:49.907Z,9.60
2019-03-18T03:29:25.694Z,7.43
2019-03-18T03:30:02.004Z,7.93
2019-03-18T03:30:37.888Z,7.97
2019-03-18T03:31:13.415Z,8.00
2019-03-18T03:31:48.969Z,9.33
2019-03-18T03:32:24.813Z,9.03
2019-03-18T03:33:00.263Z,6.20
2019-03-18T03:33:35.759Z,7.50
2019-03-18T03:34:13.808Z,6.77
2019-03-18T03:34:48.654Z,6.80
2019-03-18T03:35:24.105Z,9.57
2019-03-18T03:35:59.678Z,6.70
2019-03-18T03:36:35.487Z,7.20
2019-03-18T03:37:10.900Z,8.17
2019-03-18T03:37:46.349Z,10.60
2019-03-18T03:38:22.220Z,9.20
2019-03-18T03:38:58.016Z,6.47
2019-03-18T03:39:33.735Z,9.97
2019-03-18T03:40:09.610Z,7.13
2019-03-18T03:40:45.493Z,10.37
2019-03-18T03:41:20.949Z,6.70
2019-03-18T03:41:56.735Z,8.23
2019-03-18T03:42:32.171Z,9.17
2019-03-18T03:43:07.587Z,8.67
2019-03-18T03:43:43.016Z,6.87
2019-03-18T03:44:19.196Z,8.70
2019-03-18T03:44:54.650Z,12.23
2019-03-18T03:45:30.427Z,8.90
2019-03-18T03:46:05.909Z,9.13
2019-03-18T03:46:43.719Z,7.83
2019-03-18T03:47:19.292Z,7.60
2019-03-18T03:47:54.816Z,8.90
2019-03-18T03:48:30.568Z,9.47
2019-03-18T03:49:06.076Z,6.77
2019-03-18T03:49:41.510Z,9.07
2019-03-18T03:50:17.310Z,7.30
2019-03-18T03:50:52.779Z,8.67
2019-03-18T03:51:28.229Z,9.00
2019-03-18T03:52:04.169Z,9.30
2019-03-18T03:52:39.946Z,8.97
2019-03-18T03:53:15.353Z,7.40
2019-03-18T03:53:50.811Z,7.23
2019-03-18T03:54:27.057Z,9.93
2019-03-18T03:55:02.568Z,6.73
2019-03-18T03:55:38.205Z,9.13
2019-03-18T03:56:13.850Z,8.30
2019-03-18T03:56:49.807Z,9.83
2019-03-18T03:57:25.784Z,8.57
2019-03-18T03:58:01.194Z,7.33
2019-03-18T03:58:36.932Z,8.63
2019-03-18T03:59:12.980Z,7.83
2019-03-18T03:59:48.969Z,8.83
2019-03-18T04:00:24.456Z,15.40
2019-03-18T04:01:00.116Z,10.07
2019-03-18T04:01:35.547Z,8.97
2019-03-18T04:02:11.522Z,7.23
2019-03-18T04:02:46.945Z,7.70
2019-03-18T04:03:37.793Z,7.23
2019-03-18T04:03:59.722Z,9.27
2019-03-18T04:04:35.306Z,6.97
2019-03-18T04:05:10.873Z,7.07
2019-03-18T04:05:46.851Z,10.40
2019-03-18T04:06:23.363Z,7.30
2019-03-18T04:06:58.969Z,8.27
2019-03-18T04:07:34.617Z,8.97
2019-03-18T04:08:10.177Z,9.17
2019-03-18T04:08:45.791Z,9.33
2019-03-18T04:09:21.661Z,10.30
2019-03-18T04:09:57.694Z,9.60
2019-03-18T04:10:33.170Z,7.83
2019-03-18T04:11:09.219Z,6.63
2019-03-18T04:11:44.629Z,8.07
2019-03-18T04:12:20.145Z,10.27
2019-03-18T04:12:56.040Z,8.70
2019-03-18T04:13:31.497Z,9.07
2019-03-18T04:14:06.916Z,9.47
2019-03-18T04:14:42.370Z,9.40
2019-03-18T04:15:18.228Z,7.90
2019-03-18T04:15:53.706Z,10.13
2019-03-18T04:16:29.181Z,8.67
2019-03-18T04:17:04.616Z,8.63
2019-03-18T04:17:40.033Z,10.17
2019-03-18T04:18:17.884Z,9.40
2019-03-18T04:18:53.343Z,11.10
2019-03-18T04:19:29.403Z,8.13
2019-03-18T04:20:05.282Z,8.60
2019-03-18T04:20:40.726Z,9.30
2019-03-18T04:21:16.167Z,13.03
2019-03-18T04:21:52.030Z,10.63
2019-03-18T04:22:27.480Z,9.73
2019-03-18T04:23:02.903Z,10.27
2019-03-18T04:23:38.460Z,8.10
2019-03-18T04:24:13.878Z,9.57
2019-03-18T04:24:49.455Z,16.77
2019-03-18T04:25:25.249Z,12.03
2019-03-18T04:26:00.787Z,7.80
2019-03-18T04:26:36.627Z,10.33
2019-03-18T04:27:12.547Z,9.30
2019-03-18T04:27:48.048Z,7.70
2019-03-18T04:28:24.146Z,8.03
2019-03-18T04:28:59.604Z,10.53
2019-03-18T04:29:35.032Z,12.30
2019-03-18T04:30:10.493Z,9.97
2019-03-18T04:30:45.985Z,10.13
2019-03-18T04:31:21.461Z,10.20
2019-03-18T04:31:56.966Z,9.83
2019-03-18T04:32:32.391Z,12.93
2019-03-18T04:33:08.186Z,9.13
2019-03-18T04:33:43.909Z,9.97
2019-03-18T04:34:19.383Z,8.07
2019-03-18T04:34:54.888Z,10.97
2019-03-18T04:35:30.317Z,9.83
2019-03-18T04:36:06.065Z,11.93
2019-03-18T04:36:41.921Z,13.40
2019-03-18T04:37:17.921Z,11.50
2019-03-18T04:37:53.494Z,13.77
2019-03-18T04:38:28.917Z,9.37
2019-03-18T04:39:05.859Z,10.63
2019-03-18T04:39:41.341Z,10.23
2019-03-18T04:40:16.785Z,8.70
2019-03-18T04:40:52.687Z,7.93
2019-03-18T04:41:28.493Z,9.13
2019-03-18T04:42:03.956Z,9.97
2019-03-18T04:42:39.722Z,7.93
2019-03-18T04:43:15.155Z,8.67
2019-03-18T04:43:50.680Z,10.80
2019-03-18T04:44:26.126Z,12.77
2019-03-18T04:45:01.669Z,11.00
2019-03-18T04:45:37.101Z,9.40
2019-03-18T04:46:12.528Z,8.03
2019-03-18T04:46:48.067Z,9.93
2019-03-18T04:47:23.869Z,9.03
2019-03-18T04:47:59.963Z,7.20
2019-03-18T04:48:35.836Z,10.00
2019-03-18T04:49:11.287Z,9.13
2019-03-18T04:49:46.743Z,10.63
2019-03-18T04:50:22.787Z,9.83
2019-03-18T04:50:58.554Z,11.20
2019-03-18T04:51:34.749Z,10.17
2019-03-18T04:52:10.210Z,9.37
2019-03-18T04:52:46.132Z,8.43
2019-03-18T04:53:21.945Z,9.47
2019-03-18T04:53:57.469Z,9.40
2019-03-18T04:54:33.617Z,10.50
2019-03-18T04:55:09.465Z,10.97
2019-03-18T04:55:45.851Z,10.13
2019-03-18T04:56:21.375Z,12.07
2019-03-18T04:56:57.194Z,12.87
2019-03-18T04:57:32.716Z,15.00
2019-03-18T04:58:08.207Z,13.57
2019-03-18T04:58:43.974Z,8.60
2019-03-18T04:59:19.494Z,8.73
2019-03-18T04:59:55.818Z,9.07
2019-03-18T05:00:31.237Z,9.77
2019-03-18T05:01:06.673Z,12.53
2019-03-18T05:01:42.121Z,12.43
2019-03-18T05:02:17.613Z,8.87
2019-03-18T05:02:53.102Z,11.03
2019-03-18T05:03:28.534Z,8.87
2019-03-18T05:04:04.252Z,9.70
2019-03-18T05:04:39.672Z,12.77
2019-03-18T05:05:15.081Z,10.27
2019-03-18T05:05:50.909Z,12.67
2019-03-18T05:06:26.367Z,8.73
2019-03-18T05:07:02.131Z,9.03
2019-03-18T05:07:37.651Z,9.77
2019-03-18T05:08:13.085Z,8.67
2019-03-18T05:08:48.921Z,9.53
2019-03-18T05:09:24.681Z,9.40
2019-03-18T05:10:00.965Z,9.97
2019-03-18T05:10:36.442Z,11.10
2019-03-18T05:11:12.338Z,9.73
2019-03-18T05:11:48.085Z,9.43
2019-03-18T05:12:23.987Z,9.67
2019-03-18T05:12:59.519Z,8.77
2019-03-18T05:13:34.968Z,11.27
2019-03-18T05:14:10.484Z,11.20
2019-03-18T05:14:45.935Z,8.03
2019-03-18T05:15:21.449Z,8.27
2019-03-18T05:15:56.889Z,7.97
2019-03-18T05:16:32.325Z,9.00
2019-03-18T05:17:08.195Z,9.50
2019-03-18T05:17:43.657Z,9.73
2019-03-18T05:18:19.121Z,9.27
2019-03-18T05:18:54.732Z,9.90
2019-03-18T05:19:30.557Z,11.60
2019-03-18T05:20:06.176Z,9.40
2019-03-18T05:20:41.596Z,9.83
2019-03-18T05:21:17.086Z,8.27
2019-03-18T05:21:52.580Z,9.23
2019-03-18T05:22:28.040Z,9.07
2019-03-18T05:23:03.750Z,9.63
2019-03-18T05:23:39.181Z,8.60
2019-03-18T05:24:14.612Z,9.47
2019-03-18T05:24:50.532Z,13.63
2019-03-18T05:25:26.328Z,9.77
2019-03-18T05:26:01.749Z,9.77
2019-03-18T05:26:37.212Z,10.53
2019-03-18T05:27:13.084Z,8.63
2019-03-18T05:27:48.871Z,9.60
2019-03-18T05:28:24.381Z,10.07
2019-03-18T05:29:00.128Z,8.40
2019-03-18T05:29:35.564Z,9.10
2019-03-18T05:30:11.540Z,8.10
2019-03-18T05:30:46.998Z,11.60
2019-03-18T05:31:22.444Z,9.20
2019-03-18T05:31:58.166Z,9.57
2019-03-18T05:32:34.449Z,11.53
2019-03-18T05:33:10.235Z,10.23
2019-03-18T05:33:45.812Z,11.40
2019-03-18T05:34:21.288Z,8.30
2019-03-18T05:34:57.033Z,11.57
2019-03-18T05:35:33.079Z,10.40
2019-03-18T05:36:08.532Z,9.17
2019-03-18T05:36:44.300Z,10.60
2019-03-18T05:37:19.835Z,10.60
2019-03-18T05:37:55.312Z,9.17
2019-03-18T05:38:30.774Z,9.57
2019-03-18T05:39:07.454Z,9.13
2019-03-18T05:39:42.862Z,10.20
2019-03-18T05:40:19.013Z,11.30
2019-03-18T05:40:54.633Z,10.80
2019-03-18T05:41:30.071Z,13.40
2019-03-18T05:42:05.544Z,8.73
2019-03-18T05:42:41.337Z,9.00
2019-03-18T05:43:16.821Z,8.83
2019-03-18T05:43:52.444Z,9.43
2019-03-18T05:44:27.891Z,13.43
2019-03-18T05:45:03.328Z,9.80
2019-03-18T05:45:38.782Z,9.63
2019-03-18T05:46:14.217Z,10.23
2019-03-18T05:46:49.814Z,9.70
2019-03-18T05:47:25.380Z,9.97
2019-03-18T05:48:01.600Z,12.83
2019-03-18T05:48:37.739Z,10.70
2019-03-18T05:49:13.183Z,12.97
2019-03-18T05:49:49.177Z,8.70
2019-03-18T05:50:25.287Z,9.47
2019-03-18T05:51:00.748Z,11.90
2019-03-18T05:51:36.204Z,11.77
2019-03-18T05:52:12.015Z,11.00
2019-03-18T05:52:48.262Z,8.87
2019-03-18T05:53:24.183Z,10.57
2019-03-18T05:54:00.351Z,11.00
2019-03-18T05:54:35.797Z,12.47
2019-03-18T05:55:11.283Z,13.97
2019-03-18T05:55:47.072Z,12.23
2019-03-18T05:56:23.067Z,9.57
2019-03-18T05:56:58.872Z,10.40
2019-03-18T05:57:34.305Z,12.13
2019-03-18T05:58:09.891Z,12.83
2019-03-18T05:58:45.429Z,9.80
2019-03-18T05:59:20.915Z,11.60
2019-03-18T05:59:56.335Z,10.63
2019-03-18T06:00:32.054Z,9.50
2019-03-18T06:01:07.476Z,10.17
2019-03-18T06:01:42.907Z,10.07
2019-03-18T06:02:18.715Z,11.50
2019-03-18T06:02:54.568Z,11.50
2019-03-18T06:03:30.340Z,10.27
2019-03-18T06:04:06.102Z,9.50
2019-03-18T06:04:41.871Z,19.33
2019-03-18T06:05:17.719Z,9.60
2019-03-18T06:05:53.411Z,10.57
2019-03-18T06:06:28.857Z,12.43
2019-03-18T06:07:04.295Z,10.17
2019-03-18T06:07:40.632Z,9.93
2019-03-18T06:08:16.082Z,11.50
2019-03-18T06:08:51.991Z,8.97
2019-03-18T06:09:28.062Z,11.27
2019-03-18T06:10:04.210Z,9.40
2019-03-18T06:10:39.655Z,11.13
2019-03-18T06:11:15.837Z,11.07
2019-03-18T06:11:51.758Z,11.17
2019-03-18T06:12:27.514Z,10.20
2019-03-18T06:13:03.737Z,7.87
2019-03-18T06:13:39.157Z,11.70
2019-03-18T06:14:14.912Z,7.93
2019-03-18T06:14:51.082Z,11.57
2019-03-18T06:15:26.823Z,9.40
2019-03-18T06:16:02.257Z,10.90
2019-03-18T06:16:37.705Z,11.23
2019-03-18T06:17:13.157Z,9.20
2019-03-18T06:17:52.803Z,9.10
2019-03-18T06:18:26.261Z,9.10
2019-03-18T06:19:02.144Z,9.17
2019-03-18T06:19:37.595Z,7.63
2019-03-18T06:20:13.658Z,11.10
2019-03-18T06:20:49.500Z,8.27
2019-03-18T06:21:25.401Z,9.17
2019-03-18T06:22:00.879Z,8.53
2019-03-18T06:22:36.310Z,9.90
2019-03-18T06:23:11.776Z,7.60
2019-03-18T06:23:47.310Z,8.30
2019-03-18T06:24:22.740Z,9.00
2019-03-18T06:24:58.169Z,10.47
2019-03-18T06:25:34.018Z,7.97
2019-03-18T06:26:09.463Z,10.70
2019-03-18T06:26:44.874Z,6.83
2019-03-18T06:27:20.488Z,8.90
2019-03-18T06:27:55.912Z,8.37
2019-03-18T06:28:31.828Z,9.10
2019-03-18T06:29:07.353Z,9.67
2019-03-18T06:29:43.106Z,9.43
2019-03-18T06:30:19.058Z,7.90
2019-03-18T06:30:55.475Z,10.10
2019-03-18T06:31:30.939Z,9.53
2019-03-18T06:32:06.372Z,9.00
2019-03-18T06:32:41.808Z,8.17
2019-03-18T06:33:17.643Z,11.80
2019-03-18T06:33:53.153Z,8.20
2019-03-18T06:34:28.609Z,7.43
2019-03-18T06:35:04.205Z,9.60
2019-03-18T06:35:39.663Z,8.53
2019-03-18T06:36:15.111Z,7.00
2019-03-18T06:36:50.582Z,6.73
2019-03-18T06:37:26.894Z,6.97
2019-03-18T06:38:02.765Z,10.57
2019-03-18T06:38:39.217Z,8.00
2019-03-18T06:39:15.015Z,8.33
2019-03-18T06:39:50.459Z,8.03
2019-03-18T06:40:25.895Z,8.73
2019-03-18T06:41:01.321Z,9.53
2019-03-18T06:41:36.771Z,8.47
2019-03-18T06:42:12.279Z,9.73
2019-03-18T06:42:48.018Z,10.93
2019-03-18T06:43:23.462Z,11.60
2019-03-18T06:43:59.197Z,10.83
2019-03-18T06:44:34.979Z,9.47
2019-03-18T06:45:10.389Z,7.07
2019-03-18T06:45:45.923Z,10.30
2019-03-18T06:46:21.688Z,8.13
2019-03-18T06:46:57.130Z,7.37
2019-03-18T06:47:32.821Z,8.80
2019-03-18T06:48:09.282Z,9.10
2019-03-18T06:48:45.409Z,8.77
2019-03-18T06:49:20.860Z,8.80
2019-03-18T06:49:56.370Z,10.10
2019-03-18T06:50:32.142Z,9.23
2019-03-18T06:51:07.993Z,7.07
2019-03-18T06:51:43.638Z,8.93
2019-03-18T06:52:19.112Z,6.87
2019-03-18T06:52:54.571Z,8.10
2019-03-18T06:53:30.366Z,6.00
2019-03-18T06:54:06.100Z,6.67
2019-03-18T06:54:41.536Z,7.73
2019-03-18T06:55:16.963Z,6.00
2019-03-18T06:55:52.467Z,7.40
2019-03-18T06:56:27.909Z,8.70
2019-03-18T06:57:03.339Z,9.53
2019-03-18T06:57:39.670Z,6.77
2019-03-18T06:58:15.699Z,7.03
2019-03-18T06:58:51.143Z,5.60
2019-03-18T06:59:27.023Z,7.50
2019-03-18T07:00:02.466Z,8.80
2019-03-18T07:00:38.406Z,6.90
2019-03-18T07:01:14.178Z,8.07
2019-03-18T07:01:49.894Z,7.23
2019-03-18T07:02:25.646Z,7.47
2019-03-18T07:03:01.083Z,7.63
2019-03-18T07:03:36.622Z,6.67
2019-03-18T07:04:12.852Z,11.00
2019-03-18T07:04:48.342Z,7.43
2019-03-18T07:05:23.876Z,6.70
2019-03-18T07:05:59.306Z,6.73
2019-03-18T07:06:34.738Z,5.17
2019-03-18T07:07:10.204Z,6.87
2019-03-18T07:07:46.138Z,8.97
2019-03-18T07:08:21.973Z,9.20
2019-03-18T07:08:57.397Z,6.17
2019-03-18T07:09:32.860Z,5.40
2019-03-18T07:10:09.127Z,6.77
2019-03-18T07:10:45.392Z,6.60
2019-03-18T07:11:21.134Z,7.13
2019-03-18T07:11:56.544Z,6.37
2019-03-18T07:12:32.403Z,6.83
2019-03-18T07:13:08.374Z,10.17
2019-03-18T07:13:44.515Z,7.53
2019-03-18T07:14:20.071Z,5.13
2019-03-18T07:14:55.507Z,5.23
2019-03-18T07:15:30.936Z,6.10
2019-03-18T07:16:06.361Z,5.10
2019-03-18T07:16:42.195Z,6.53
2019-03-18T07:17:17.790Z,5.40
2019-03-18T07:17:53.250Z,5.17
2019-03-18T07:18:28.773Z,6.07
2019-03-18T07:19:04.225Z,7.50
2019-03-18T07:19:39.953Z,6.47
2019-03-18T07:20:17.673Z,5.30
2019-03-18T07:20:53.896Z,7.27
2019-03-18T07:21:29.409Z,6.23
2019-03-18T07:22:04.840Z,5.90
2019-03-18T07:22:40.576Z,5.40
2019-03-18T07:23:16.348Z,6.57
2019-03-18T07:23:52.545Z,6.63
2019-03-18T07:24:28.257Z,7.10
2019-03-18T07:25:03.807Z,5.03
2019-03-18T07:25:39.631Z,7.67
2019-03-18T07:26:15.513Z,5.40
2019-03-18T07:26:51.055Z,5.97
2019-03-18T07:27:26.841Z,7.57
2019-03-18T07:28:02.297Z,9.30
2019-03-18T07:28:38.035Z,5.67
2019-03-18T07:29:14.177Z,8.47
2019-03-18T07:29:49.914Z,8.50
2019-03-18T07:30:25.436Z,6.30
2019-03-18T07:31:01.198Z,5.40
2019-03-18T07:31:36.664Z,5.90
2019-03-18T07:32:12.496Z,5.30
2019-03-18T07:32:47.987Z,5.77
2019-03-18T07:33:23.416Z,5.57
2019-03-18T07:34:00.005Z,6.47
2019-03-18T07:34:35.488Z,9.27
2019-03-18T07:35:10.899Z,6.37
2019-03-18T07:35:46.369Z,7.20
2019-03-18T07:36:21.925Z,10.63
2019-03-18T07:36:57.704Z,6.77
2019-03-18T07:37:33.557Z,4.90
2019-03-18T07:38:09.710Z,6.17
2019-03-18T07:38:45.461Z,7.53
2019-03-18T07:39:21.128Z,9.03
2019-03-18T07:39:57.424Z,6.43
2019-03-18T07:40:33.467Z,5.37
2019-03-18T07:41:09.529Z,6.53
2019-03-18T07:41:45.456Z,7.03
2019-03-18T07:42:21.353Z,6.57
2019-03-18T07:42:57.519Z,6.50
2019-03-18T07:43:32.931Z,7.50
2019-03-18T07:44:08.486Z,5.77
2019-03-18T07:44:43.933Z,6.00
2019-03-18T07:45:19.793Z,6.97
2019-03-18T07:45:55.252Z,7.73
2019-03-18T07:46:30.966Z,5.13
2019-03-18T07:47:06.782Z,7.17
2019-03-18T07:47:42.314Z,5.67
2019-03-18T07:48:29.989Z,6.00
2019-03-18T07:48:55.370Z,6.53
2019-03-18T07:49:31.413Z,8.27
2019-03-18T07:50:08.084Z,8.27
2019-03-18T07:50:43.874Z,6.13
2019-03-18T07:51:19.323Z,6.40
2019-03-18T07:51:54.880Z,8.37
2019-03-18T07:52:30.931Z,6.77
2019-03-18T07:53:06.847Z,5.60